sensor_id;sensor_type;location;lat;lon;timestamp;pressure;altitude;pressure_sealevel;temperature;humidity
10115;BME280;5097;43.260;27.812;2023-05-25T00:01:13;100012.81;;;15.50;75.48
10115;BME280;5097;43.260;27.812;2023-05-25T00:03:59;100006.84;;;15.47;75.13
10115;BME280;5097;43.260;27.812;2023-05-25T00:06:45;100001.13;;;15.04;76.60
10115;BME280;5097;43.260;27.812;2023-05-25T00:09:29;99999.94;;;15.08;76.92
10115;BME280;5097;43.260;27.812;2023-05-25T00:12:13;99985.38;;;15.01;77.78
10115;BME280;5097;43.260;27.812;2023-05-25T00:14:58;99989.19;;;15.10;77.52
10115;BME280;5097;43.260;27.812;2023-05-25T00:17:41;99993.28;;;15.38;76.54
10115;BME280;5097;43.260;27.812;2023-05-25T00:20:27;99989.41;;;15.42;75.19
10115;BME280;5097;43.260;27.812;2023-05-25T00:23:11;99990.19;;;15.56;75.85
10115;BME280;5097;43.260;27.812;2023-05-25T00:25:55;99993.31;;;15.50;75.64
10115;BME280;5097;43.260;27.812;2023-05-25T00:28:38;100000.69;;;15.46;75.23
10115;BME280;5097;43.260;27.812;2023-05-25T00:31:22;99991.41;;;15.63;74.76
10115;BME280;5097;43.260;27.812;2023-05-25T00:34:06;99995.44;;;15.69;74.56
10115;BME280;5097;43.260;27.812;2023-05-25T00:36:52;99984.53;;;15.36;75.31
10115;BME280;5097;43.260;27.812;2023-05-25T00:39:36;99994.88;;;15.41;75.44
10115;BME280;5097;43.260;27.812;2023-05-25T00:42:22;99988.41;;;15.32;75.79
10115;BME280;5097;43.260;27.812;2023-05-25T00:45:07;99996.56;;;15.42;76.47
10115;BME280;5097;43.260;27.812;2023-05-25T00:47:51;100003.28;;;15.35;76.54
10115;BME280;5097;43.260;27.812;2023-05-25T00:50:38;99991.63;;;15.49;75.45
10115;BME280;5097;43.260;27.812;2023-05-25T00:53:24;99986.31;;;15.60;75.35
10115;BME280;5097;43.260;27.812;2023-05-25T00:56:13;99994.31;;;15.60;74.85
10115;BME280;5097;43.260;27.812;2023-05-25T00:59:03;99986.19;;;15.50;75.36
10115;BME280;5097;43.260;27.812;2023-05-25T01:01:50;99977.75;;;15.32;76.11
10115;BME280;5097;43.260;27.812;2023-05-25T01:04:38;99984.47;;;15.49;75.99
10115;BME280;5097;43.260;27.812;2023-05-25T01:07:23;99991.25;;;15.42;75.90
10115;BME280;5097;43.260;27.812;2023-05-25T01:10:13;99990.69;;;15.25;76.95
10115;BME280;5097;43.260;27.812;2023-05-25T01:12:58;99988.78;;;15.39;76.47
10115;BME280;5097;43.260;27.812;2023-05-25T01:15:45;99991.81;;;15.34;76.33
10115;BME280;5097;43.260;27.812;2023-05-25T01:18:29;99984.78;;;15.33;76.65
10115;BME280;5097;43.260;27.812;2023-05-25T01:21:19;99988.97;;;15.49;76.93
10115;BME280;5097;43.260;27.812;2023-05-25T01:24:07;99990.09;;;15.33;77.09
10115;BME280;5097;43.260;27.812;2023-05-25T01:26:57;99990.88;;;15.47;76.08
10115;BME280;5097;43.260;27.812;2023-05-25T01:29:44;99962.28;;;15.26;77.26
10115;BME280;5097;43.260;27.812;2023-05-25T01:32:30;99970.91;;;15.41;76.95
10115;BME280;5097;43.260;27.812;2023-05-25T01:35:15;99987.25;;;15.48;75.63
10115;BME280;5097;43.260;27.812;2023-05-25T01:38:02;99987.03;;;15.51;76.03
10115;BME280;5097;43.260;27.812;2023-05-25T01:40:47;99988.47;;;15.55;75.96
10115;BME280;5097;43.260;27.812;2023-05-25T01:43:31;99987.06;;;15.27;76.81
10115;BME280;5097;43.260;27.812;2023-05-25T01:46:20;99989.03;;;15.00;77.98
10115;BME280;5097;43.260;27.812;2023-05-25T01:49:14;99982.00;;;14.99;78.09
10115;BME280;5097;43.260;27.812;2023-05-25T01:52:05;99958.63;;;14.91;77.46
10115;BME280;5097;43.260;27.812;2023-05-25T01:54:56;99982.41;;;15.06;77.93
10115;BME280;5097;43.260;27.812;2023-05-25T01:57:49;99980.56;;;14.82;79.08
10115;BME280;5097;43.260;27.812;2023-05-25T02:00:34;99985.34;;;14.90;78.98
10115;BME280;5097;43.260;27.812;2023-05-25T02:03:19;99980.75;;;14.92;78.49
10115;BME280;5097;43.260;27.812;2023-05-25T02:06:04;99974.75;;;15.01;77.38
10115;BME280;5097;43.260;27.812;2023-05-25T02:08:49;99986.00;;;15.05;77.58
10115;BME280;5097;43.260;27.812;2023-05-25T02:11:35;99996.78;;;15.03;78.30
10115;BME280;5097;43.260;27.812;2023-05-25T02:14:19;99937.59;;;14.64;78.81
10115;BME280;5097;43.260;27.812;2023-05-25T02:17:03;100003.72;;;14.93;79.61
10115;BME280;5097;43.260;27.812;2023-05-25T02:19:49;99974.63;;;14.79;78.63
10115;BME280;5097;43.260;27.812;2023-05-25T02:22:35;100000.78;;;14.85;79.41
10115;BME280;5097;43.260;27.812;2023-05-25T02:25:21;99999.06;;;14.84;78.75
10115;BME280;5097;43.260;27.812;2023-05-25T02:28:07;100011.38;;;14.98;79.17
10115;BME280;5097;43.260;27.812;2023-05-25T02:30:50;99997.72;;;15.02;79.39
10115;BME280;5097;43.260;27.812;2023-05-25T02:33:34;100012.50;;;15.06;78.86
10115;BME280;5097;43.260;27.812;2023-05-25T02:36:18;99993.31;;;14.90;78.42
10115;BME280;5097;43.260;27.812;2023-05-25T02:39:03;100009.97;;;14.68;80.30
10115;BME280;5097;43.260;27.812;2023-05-25T02:41:47;100012.97;;;14.63;81.63
10115;BME280;5097;43.260;27.812;2023-05-25T02:44:32;100017.22;;;14.66;82.65
10115;BME280;5097;43.260;27.812;2023-05-25T02:47:17;100008.38;;;14.65;82.43
10115;BME280;5097;43.260;27.812;2023-05-25T02:50:01;100014.03;;;14.73;82.36
10115;BME280;5097;43.260;27.812;2023-05-25T02:52:48;100012.53;;;14.56;82.68
10115;BME280;5097;43.260;27.812;2023-05-25T02:55:33;100014.03;;;14.73;82.37
10115;BME280;5097;43.260;27.812;2023-05-25T02:58:17;100013.16;;;14.97;82.44
10115;BME280;5097;43.260;27.812;2023-05-25T03:01:23;100017.09;;;14.80;81.86
10115;BME280;5097;43.260;27.812;2023-05-25T03:04:09;100022.75;;;14.50;84.26
10115;BME280;5097;43.260;27.812;2023-05-25T03:06:54;100024.66;;;14.61;83.84
10115;BME280;5097;43.260;27.812;2023-05-25T03:09:38;99991.72;;;14.63;83.58
10115;BME280;5097;43.260;27.812;2023-05-25T03:12:22;100031.88;;;15.08;83.37
10115;BME280;5097;43.260;27.812;2023-05-25T03:15:07;100041.88;;;15.29;82.26
10115;BME280;5097;43.260;27.812;2023-05-25T03:17:56;100038.41;;;15.40;81.68
10115;BME280;5097;43.260;27.812;2023-05-25T03:20:47;100020.81;;;15.26;81.03
10115;BME280;5097;43.260;27.812;2023-05-25T03:23:32;100041.34;;;15.48;80.52
10115;BME280;5097;43.260;27.812;2023-05-25T03:26:20;100033.03;;;15.53;80.31
10115;BME280;5097;43.260;27.812;2023-05-25T03:29:05;100040.88;;;15.54;80.18
10115;BME280;5097;43.260;27.812;2023-05-25T03:31:49;100034.50;;;15.57;80.02
10115;BME280;5097;43.260;27.812;2023-05-25T03:34:39;99993.31;;;15.50;80.28
10115;BME280;5097;43.260;27.812;2023-05-25T03:37:27;100010.38;;;15.47;79.89
10115;BME280;5097;43.260;27.812;2023-05-25T03:40:12;100006.47;;;15.75;80.49
10115;BME280;5097;43.260;27.812;2023-05-25T03:42:56;100012.94;;;15.96;79.37
10115;BME280;5097;43.260;27.812;2023-05-25T03:45:40;100041.31;;;16.31;78.58
10115;BME280;5097;43.260;27.812;2023-05-25T03:48:25;100019.59;;;16.13;79.05
10115;BME280;5097;43.260;27.812;2023-05-25T03:51:10;100036.47;;;16.58;78.58
10115;BME280;5097;43.260;27.812;2023-05-25T03:53:54;100033.78;;;16.92;78.07
10115;BME280;5097;43.260;27.812;2023-05-25T03:56:38;100037.75;;;16.98;77.34
10115;BME280;5097;43.260;27.812;2023-05-25T03:59:22;100034.31;;;17.19;77.05
10115;BME280;5097;43.260;27.812;2023-05-25T04:02:07;100040.47;;;17.52;76.68
10115;BME280;5097;43.260;27.812;2023-05-25T04:04:51;100031.53;;;17.95;75.31
10115;BME280;5097;43.260;27.812;2023-05-25T04:07:36;100044.19;;;18.24;73.20
10115;BME280;5097;43.260;27.812;2023-05-25T04:10:22;100041.13;;;18.59;72.19
10115;BME280;5097;43.260;27.812;2023-05-25T04:13:06;100031.63;;;18.86;70.39
10115;BME280;5097;43.260;27.812;2023-05-25T04:15:50;100052.28;;;19.25;69.24
10115;BME280;5097;43.260;27.812;2023-05-25T04:18:37;100052.56;;;19.32;68.67
10115;BME280;5097;43.260;27.812;2023-05-25T04:21:21;100048.47;;;19.47;67.63
10115;BME280;5097;43.260;27.812;2023-05-25T04:24:07;100053.97;;;19.55;67.41
10115;BME280;5097;43.260;27.812;2023-05-25T04:26:51;100013.34;;;19.50;65.94
10115;BME280;5097;43.260;27.812;2023-05-25T04:29:35;100060.88;;;19.87;64.84
10115;BME280;5097;43.260;27.812;2023-05-25T04:32:19;100056.22;;;19.99;65.05
10115;BME280;5097;43.260;27.812;2023-05-25T04:35:08;100065.84;;;20.39;64.62
10115;BME280;5097;43.260;27.812;2023-05-25T04:37:57;100059.31;;;20.04;65.61
10115;BME280;5097;43.260;27.812;2023-05-25T04:40:46;100046.38;;;19.51;66.20
10115;BME280;5097;43.260;27.812;2023-05-25T04:43:31;100072.31;;;19.60;66.13
10115;BME280;5097;43.260;27.812;2023-05-25T04:46:16;100058.72;;;18.93;68.82
10115;BME280;5097;43.260;27.812;2023-05-25T04:49:00;100070.34;;;19.82;66.39
10115;BME280;5097;43.260;27.812;2023-05-25T04:51:44;100064.34;;;20.17;65.18
10115;BME280;5097;43.260;27.812;2023-05-25T05:07:03;100087.22;;;21.60;59.78
10115;BME280;5097;43.260;27.812;2023-05-25T05:09:47;100048.66;;;21.52;58.99
10115;BME280;5097;43.260;27.812;2023-05-25T05:12:32;100087.94;;;21.63;58.98
10115;BME280;5097;43.260;27.812;2023-05-25T05:15:17;100085.31;;;21.89;59.06
10115;BME280;5097;43.260;27.812;2023-05-25T05:18:03;100087.56;;;21.12;61.27
10115;BME280;5097;43.260;27.812;2023-05-25T05:20:48;100090.47;;;20.72;61.89
10115;BME280;5097;43.260;27.812;2023-05-25T05:23:34;100090.16;;;20.75;62.64
10115;BME280;5097;43.260;27.812;2023-05-25T05:26:18;100082.09;;;21.03;61.62
10115;BME280;5097;43.260;27.812;2023-05-25T05:29:03;100091.66;;;21.52;61.01
10115;BME280;5097;43.260;27.812;2023-05-25T05:31:50;100078.31;;;21.60;61.36
10115;BME280;5097;43.260;27.812;2023-05-25T05:34:34;100090.13;;;21.67;60.88
10115;BME280;5097;43.260;27.812;2023-05-25T05:37:23;100094.13;;;20.71;62.95
10115;BME280;5097;43.260;27.812;2023-05-25T05:40:09;100092.84;;;21.03;62.81
10115;BME280;5097;43.260;27.812;2023-05-25T05:42:57;100102.53;;;21.32;61.90
10115;BME280;5097;43.260;27.812;2023-05-25T05:45:41;100106.25;;;21.31;60.63
10115;BME280;5097;43.260;27.812;2023-05-25T05:48:25;100110.84;;;21.21;61.39
10115;BME280;5097;43.260;27.812;2023-05-25T05:51:10;100101.59;;;21.05;61.93
10115;BME280;5097;43.260;27.812;2023-05-25T05:53:54;100115.16;;;21.04;61.62
10115;BME280;5097;43.260;27.812;2023-05-25T05:56:40;100122.66;;;21.28;60.73
10115;BME280;5097;43.260;27.812;2023-05-25T05:59:23;100117.47;;;21.45;60.34
10115;BME280;5097;43.260;27.812;2023-05-25T06:02:08;100111.88;;;21.38;60.64
10115;BME280;5097;43.260;27.812;2023-05-25T06:04:52;100117.56;;;21.53;59.38
10115;BME280;5097;43.260;27.812;2023-05-25T06:07:37;100123.09;;;21.69;59.53
10115;BME280;5097;43.260;27.812;2023-05-25T06:10:21;99977.34;;;21.21;58.49
10115;BME280;5097;43.260;27.812;2023-05-25T06:13:06;100118.53;;;22.06;59.30
10115;BME280;5097;43.260;27.812;2023-05-25T06:15:51;100119.22;;;22.34;58.19
10115;BME280;5097;43.260;27.812;2023-05-25T06:18:38;100120.88;;;22.88;55.88
10115;BME280;5097;43.260;27.812;2023-05-25T06:21:22;100099.59;;;23.11;55.70
10115;BME280;5097;43.260;27.812;2023-05-25T06:24:06;100122.75;;;23.30;55.56
10115;BME280;5097;43.260;27.812;2023-05-25T06:26:50;100113.53;;;22.98;56.30
10115;BME280;5097;43.260;27.812;2023-05-25T06:29:36;100115.03;;;22.32;57.34
10115;BME280;5097;43.260;27.812;2023-05-25T06:32:20;100105.63;;;22.09;59.13
10115;BME280;5097;43.260;27.812;2023-05-25T06:35:04;100093.75;;;22.81;56.97
10115;BME280;5097;43.260;27.812;2023-05-25T06:37:50;100096.72;;;23.04;57.41
10115;BME280;5097;43.260;27.812;2023-05-25T06:40:34;100116.53;;;23.30;56.42
10115;BME280;5097;43.260;27.812;2023-05-25T06:43:18;100119.34;;;23.20;57.47
10115;BME280;5097;43.260;27.812;2023-05-25T06:46:24;100127.31;;;22.87;58.60
10115;BME280;5097;43.260;27.812;2023-05-25T06:49:08;100128.88;;;23.06;57.71
10115;BME280;5097;43.260;27.812;2023-05-25T06:51:52;100128.78;;;23.16;57.54
10115;BME280;5097;43.260;27.812;2023-05-25T06:54:36;100122.25;;;23.35;57.16
10115;BME280;5097;43.260;27.812;2023-05-25T06:57:20;100122.13;;;23.45;56.35
10115;BME280;5097;43.260;27.812;2023-05-25T07:00:05;100119.03;;;23.23;56.92
10115;BME280;5097;43.260;27.812;2023-05-25T07:02:55;100119.47;;;23.86;55.78
10115;BME280;5097;43.260;27.812;2023-05-25T07:05:39;100116.44;;;23.97;55.63
10115;BME280;5097;43.260;27.812;2023-05-25T07:08:22;99992.03;;;23.51;54.76
10115;BME280;5097;43.260;27.812;2023-05-25T07:11:06;100104.59;;;23.57;56.81
10115;BME280;5097;43.260;27.812;2023-05-25T07:13:53;100117.91;;;23.50;57.18
10115;BME280;5097;43.260;27.812;2023-05-25T07:16:37;100115.09;;;23.85;56.70
10115;BME280;5097;43.260;27.812;2023-05-25T07:19:22;100116.91;;;24.34;55.92
10115;BME280;5097;43.260;27.812;2023-05-25T07:22:06;100125.19;;;24.32;56.08
10115;BME280;5097;43.260;27.812;2023-05-25T07:24:51;100117.16;;;24.80;54.23
10115;BME280;5097;43.260;27.812;2023-05-25T07:27:35;100127.31;;;24.62;54.72
10115;BME280;5097;43.260;27.812;2023-05-25T07:30:19;100126.88;;;25.37;52.07
10115;BME280;5097;43.260;27.812;2023-05-25T07:33:03;100123.94;;;25.16;52.07
10115;BME280;5097;43.260;27.812;2023-05-25T07:35:48;100123.13;;;25.07;51.72
10115;BME280;5097;43.260;27.812;2023-05-25T07:38:33;100127.47;;;25.16;52.28
10115;BME280;5097;43.260;27.812;2023-05-25T07:41:17;100118.63;;;24.91;53.28
10115;BME280;5097;43.260;27.812;2023-05-25T07:44:01;100114.44;;;25.20;52.20
10115;BME280;5097;43.260;27.812;2023-05-25T07:46:45;100117.97;;;25.20;52.05
10115;BME280;5097;43.260;27.812;2023-05-25T07:49:29;100114.44;;;25.74;50.95
10115;BME280;5097;43.260;27.812;2023-05-25T07:52:14;100102.88;;;25.34;51.95
10115;BME280;5097;43.260;27.812;2023-05-25T07:54:58;100099.34;;;25.80;50.44
10115;BME280;5097;43.260;27.812;2023-05-25T07:57:42;100118.75;;;25.84;49.10
10115;BME280;5097;43.260;27.812;2023-05-25T08:00:26;100111.13;;;26.25;48.62
10115;BME280;5097;43.260;27.812;2023-05-25T08:03:10;100114.09;;;26.84;47.08
10115;BME280;5097;43.260;27.812;2023-05-25T08:05:55;100121.88;;;27.23;45.54
10115;BME280;5097;43.260;27.812;2023-05-25T08:08:40;100043.00;;;26.22;46.72
10115;BME280;5097;43.260;27.812;2023-05-25T08:11:26;100116.91;;;26.07;48.46
10115;BME280;5097;43.260;27.812;2023-05-25T08:14:10;100132.84;;;25.56;48.83
10115;BME280;5097;43.260;27.812;2023-05-25T08:16:54;100125.88;;;25.62;48.17
10115;BME280;5097;43.260;27.812;2023-05-25T08:19:38;100120.63;;;26.06;46.43
10115;BME280;5097;43.260;27.812;2023-05-25T08:22:22;100122.72;;;26.72;44.94
10115;BME280;5097;43.260;27.812;2023-05-25T08:25:07;100109.59;;;26.91;44.77
10115;BME280;5097;43.260;27.812;2023-05-25T08:27:52;100119.72;;;26.14;47.14
10115;BME280;5097;43.260;27.812;2023-05-25T08:30:36;100118.41;;;26.10;46.74
10115;BME280;5097;43.260;27.812;2023-05-25T08:33:20;100122.16;;;26.24;46.31
10115;BME280;5097;43.260;27.812;2023-05-25T08:36:07;100118.97;;;25.59;46.47
10115;BME280;5097;43.260;27.812;2023-05-25T08:38:51;100125.25;;;26.21;45.18
10115;BME280;5097;43.260;27.812;2023-05-25T08:41:43;100097.34;;;25.97;45.88
10115;BME280;5097;43.260;27.812;2023-05-25T08:44:27;100096.97;;;26.38;45.44
10115;BME280;5097;43.260;27.812;2023-05-25T08:47:11;100124.50;;;26.27;46.09
10115;BME280;5097;43.260;27.812;2023-05-25T08:49:59;100125.69;;;25.63;47.39
10115;BME280;5097;43.260;27.812;2023-05-25T08:52:48;100134.22;;;25.98;46.98
10115;BME280;5097;43.260;27.812;2023-05-25T08:55:36;100119.47;;;24.91;47.13
10115;BME280;5097;43.260;27.812;2023-05-25T08:58:28;100117.50;;;25.17;47.83
10115;BME280;5097;43.260;27.812;2023-05-25T09:01:17;100119.84;;;25.98;45.74
10115;BME280;5097;43.260;27.812;2023-05-25T09:04:01;100119.25;;;26.25;45.89
10115;BME280;5097;43.260;27.812;2023-05-25T09:06:46;100124.44;;;26.65;45.03
10115;BME280;5097;43.260;27.812;2023-05-25T09:09:50;100119.81;;;26.21;43.90
10115;BME280;5097;43.260;27.812;2023-05-25T09:12:35;100120.25;;;26.77;43.20
10115;BME280;5097;43.260;27.812;2023-05-25T09:15:22;100126.69;;;27.06;43.28
10115;BME280;5097;43.260;27.812;2023-05-25T09:18:06;100125.09;;;26.67;44.51
10115;BME280;5097;43.260;27.812;2023-05-25T09:20:52;100133.63;;;25.33;47.22
10115;BME280;5097;43.260;27.812;2023-05-25T09:23:37;100126.78;;;25.14;50.43
10115;BME280;5097;43.260;27.812;2023-05-25T09:26:21;100121.66;;;24.96;52.60
10115;BME280;5097;43.260;27.812;2023-05-25T09:29:05;100115.88;;;24.99;53.59
10115;BME280;5097;43.260;27.812;2023-05-25T09:31:51;100109.25;;;24.70;57.73
10115;BME280;5097;43.260;27.812;2023-05-25T09:34:35;100121.94;;;24.53;57.82
10115;BME280;5097;43.260;27.812;2023-05-25T09:37:18;100127.53;;;24.43;59.63
10115;BME280;5097;43.260;27.812;2023-05-25T09:40:04;100130.59;;;24.32;60.94
10115;BME280;5097;43.260;27.812;2023-05-25T09:42:48;100125.19;;;24.32;62.55
10115;BME280;5097;43.260;27.812;2023-05-25T09:45:33;100133.63;;;24.29;63.51
10115;BME280;5097;43.260;27.812;2023-05-25T09:48:21;100132.31;;;24.17;65.48
10115;BME280;5097;43.260;27.812;2023-05-25T09:51:06;100137.31;;;23.70;67.36
10115;BME280;5097;43.260;27.812;2023-05-25T09:53:50;100126.88;;;23.59;65.04
10115;BME280;5097;43.260;27.812;2023-05-25T09:56:35;100125.81;;;23.43;65.48
10115;BME280;5097;43.260;27.812;2023-05-25T09:59:20;100132.22;;;23.51;64.87
10115;BME280;5097;43.260;27.812;2023-05-25T10:02:05;100109.84;;;22.65;67.84
10115;BME280;5097;43.260;27.812;2023-05-25T10:04:50;100133.78;;;23.10;68.59
10115;BME280;5097;43.260;27.812;2023-05-25T10:07:35;100129.66;;;23.24;67.55
10115;BME280;5097;43.260;27.812;2023-05-25T10:10:22;100140.00;;;23.46;67.02
10115;BME280;5097;43.260;27.812;2023-05-25T10:13:07;100147.22;;;23.45;66.89
10115;BME280;5097;43.260;27.812;2023-05-25T10:15:52;100141.13;;;22.92;67.61
10115;BME280;5097;43.260;27.812;2023-05-25T10:18:41;100156.47;;;22.65;68.64
10115;BME280;5097;43.260;27.812;2023-05-25T10:21:28;100130.22;;;22.41;70.15
10115;BME280;5097;43.260;27.812;2023-05-25T10:24:19;100141.19;;;22.21;73.41
10115;BME280;5097;43.260;27.812;2023-05-25T10:27:10;100145.63;;;22.57;72.29
10115;BME280;5097;43.260;27.812;2023-05-25T10:30:10;100145.75;;;22.73;72.67
10115;BME280;5097;43.260;27.812;2023-05-25T10:32:56;100140.59;;;22.54;74.97
10115;BME280;5097;43.260;27.812;2023-05-25T10:35:42;100149.50;;;22.10;78.33
10115;BME280;5097;43.260;27.812;2023-05-25T10:38:45;100103.88;;;21.00;82.28
10115;BME280;5097;43.260;27.812;2023-05-25T10:41:30;100149.84;;;20.97;82.62
10115;BME280;5097;43.260;27.812;2023-05-25T10:44:14;100144.34;;;20.89;82.90
10115;BME280;5097;43.260;27.812;2023-05-25T10:46:59;100138.84;;;20.90;82.99
10115;BME280;5097;43.260;27.812;2023-05-25T10:49:54;100122.94;;;20.79;84.71
10115;BME280;5097;43.260;27.812;2023-05-25T10:52:39;100123.81;;;20.70;84.41
10115;BME280;5097;43.260;27.812;2023-05-25T10:55:24;100123.91;;;20.78;86.61
10115;BME280;5097;43.260;27.812;2023-05-25T10:58:14;100131.50;;;20.83;85.86
10115;BME280;5097;43.260;27.812;2023-05-25T11:01:00;100128.25;;;20.89;86.82
10115;BME280;5097;43.260;27.812;2023-05-25T11:03:55;100103.44;;;20.77;87.47
10115;BME280;5097;43.260;27.812;2023-05-25T11:07:05;100120.47;;;21.14;86.71
10115;BME280;5097;43.260;27.812;2023-05-25T11:09:57;100115.97;;;21.14;85.87
10115;BME280;5097;43.260;27.812;2023-05-25T11:12:44;100121.16;;;21.43;83.30
10115;BME280;5097;43.260;27.812;2023-05-25T11:15:29;100103.81;;;21.92;80.46
10115;BME280;5097;43.260;27.812;2023-05-25T11:18:13;100115.28;;;22.38;79.24
10115;BME280;5097;43.260;27.812;2023-05-25T11:21:10;100113.84;;;22.87;74.46
10115;BME280;5097;43.260;27.812;2023-05-25T11:23:56;100113.34;;;22.57;75.92
10115;BME280;5097;43.260;27.812;2023-05-25T11:26:56;100100.97;;;22.72;74.92
10115;BME280;5097;43.260;27.812;2023-05-25T11:29:42;100102.91;;;22.54;74.16
10115;BME280;5097;43.260;27.812;2023-05-25T11:32:26;100083.56;;;22.32;76.65
10115;BME280;5097;43.260;27.812;2023-05-25T11:35:10;100104.28;;;22.66;76.60
10115;BME280;5097;43.260;27.812;2023-05-25T11:37:54;100094.84;;;22.09;76.73
10115;BME280;5097;43.260;27.812;2023-05-25T11:40:38;100073.34;;;22.09;76.66
10115;BME280;5097;43.260;27.812;2023-05-25T11:43:23;100081.03;;;22.04;77.27
10115;BME280;5097;43.260;27.812;2023-05-25T11:46:09;100077.88;;;21.65;78.66
10115;BME280;5097;43.260;27.812;2023-05-25T11:48:54;100067.25;;;21.81;78.42
10115;BME280;5097;43.260;27.812;2023-05-25T11:51:38;100068.09;;;21.82;77.86
10115;BME280;5097;43.260;27.812;2023-05-25T11:54:23;100068.31;;;21.34;78.99
10115;BME280;5097;43.260;27.812;2023-05-25T11:57:13;100070.16;;;21.16;79.35
10115;BME280;5097;43.260;27.812;2023-05-25T11:59:58;100062.66;;;21.73;79.50
10115;BME280;5097;43.260;27.812;2023-05-25T12:02:50;100056.16;;;22.02;76.97
10115;BME280;5097;43.260;27.812;2023-05-25T12:05:38;100056.81;;;22.04;78.18
10115;BME280;5097;43.260;27.812;2023-05-25T12:08:31;100046.56;;;21.82;78.55
10115;BME280;5097;43.260;27.812;2023-05-25T12:11:15;100028.56;;;22.00;78.76
10115;BME280;5097;43.260;27.812;2023-05-25T12:13:59;100040.72;;;22.13;78.07
10115;BME280;5097;43.260;27.812;2023-05-25T12:16:44;100031.25;;;22.61;76.25
10115;BME280;5097;43.260;27.812;2023-05-25T12:19:29;100043.84;;;23.12;72.88
10115;BME280;5097;43.260;27.812;2023-05-25T12:22:14;100043.25;;;23.51;71.63
10115;BME280;5097;43.260;27.812;2023-05-25T12:24:59;100044.94;;;23.43;71.66
10115;BME280;5097;43.260;27.812;2023-05-25T12:27:44;100051.00;;;23.87;70.93
10115;BME280;5097;43.260;27.812;2023-05-25T12:30:28;100070.66;;;24.45;68.61
10115;BME280;5097;43.260;27.812;2023-05-25T12:33:12;100071.59;;;23.80;66.55
10115;BME280;5097;43.260;27.812;2023-05-25T12:35:58;100074.81;;;23.75;68.16
10115;BME280;5097;43.260;27.812;2023-05-25T12:38:57;100098.91;;;23.76;66.59
10115;BME280;5097;43.260;27.812;2023-05-25T12:41:46;100096.91;;;23.95;66.96
10115;BME280;5097;43.260;27.812;2023-05-25T12:44:32;100110.53;;;23.60;66.68
10115;BME280;5097;43.260;27.812;2023-05-25T12:47:18;100125.25;;;23.15;68.16
10115;BME280;5097;43.260;27.812;2023-05-25T12:50:11;100106.06;;;22.84;69.34
10115;BME280;5097;43.260;27.812;2023-05-25T12:53:01;100134.03;;;22.83;70.77
10115;BME280;5097;43.260;27.812;2023-05-25T12:55:45;100141.28;;;22.12;72.80
10115;BME280;5097;43.260;27.812;2023-05-25T12:58:29;100154.03;;;22.09;72.88
10115;BME280;5097;43.260;27.812;2023-05-25T13:01:13;100142.72;;;21.52;73.82
10115;BME280;5097;43.260;27.812;2023-05-25T13:03:58;100132.41;;;21.47;74.18
10115;BME280;5097;43.260;27.812;2023-05-25T13:06:41;100158.28;;;21.02;70.12
10115;BME280;5097;43.260;27.812;2023-05-25T13:09:27;100154.66;;;20.46;70.56
10115;BME280;5097;43.260;27.812;2023-05-25T13:12:11;100130.03;;;20.51;71.38
10115;BME280;5097;43.260;27.812;2023-05-25T13:14:55;100142.66;;;20.88;70.87
10115;BME280;5097;43.260;27.812;2023-05-25T13:17:40;100131.22;;;20.38;71.96
10115;BME280;5097;43.260;27.812;2023-05-25T13:20:26;100108.06;;;20.37;72.97
10115;BME280;5097;43.260;27.812;2023-05-25T13:23:11;100122.34;;;20.38;73.93
10115;BME280;5097;43.260;27.812;2023-05-25T13:25:56;100113.66;;;20.54;73.62
10115;BME280;5097;43.260;27.812;2023-05-25T13:28:40;100103.00;;;20.34;73.48
10115;BME280;5097;43.260;27.812;2023-05-25T13:31:24;100113.06;;;20.60;73.30
10115;BME280;5097;43.260;27.812;2023-05-25T13:34:08;100085.97;;;20.91;72.11
10115;BME280;5097;43.260;27.812;2023-05-25T13:36:53;100089.53;;;20.54;72.06
10115;BME280;5097;43.260;27.812;2023-05-25T13:39:37;100079.78;;;20.53;73.49
10115;BME280;5097;43.260;27.812;2023-05-25T13:42:22;100074.91;;;20.66;71.34
10115;BME280;5097;43.260;27.812;2023-05-25T13:45:07;100073.03;;;21.04;72.23
10115;BME280;5097;43.260;27.812;2023-05-25T13:47:51;100053.78;;;21.27;68.27
10115;BME280;5097;43.260;27.812;2023-05-25T13:50:35;100055.97;;;21.77;67.24
10115;BME280;5097;43.260;27.812;2023-05-25T13:53:19;100047.44;;;21.64;66.00
10115;BME280;5097;43.260;27.812;2023-05-25T13:56:04;100040.84;;;21.58;68.77
10115;BME280;5097;43.260;27.812;2023-05-25T13:58:49;100025.88;;;22.00;65.89
10115;BME280;5097;43.260;27.812;2023-05-25T14:01:33;100028.50;;;22.45;64.63
10115;BME280;5097;43.260;27.812;2023-05-25T14:04:17;100023.84;;;22.29;65.37
10115;BME280;5097;43.260;27.812;2023-05-25T14:07:01;99986.47;;;22.52;64.67
10115;BME280;5097;43.260;27.812;2023-05-25T14:09:45;99992.56;;;22.62;63.66
10115;BME280;5097;43.260;27.812;2023-05-25T14:12:30;99981.81;;;22.70;61.45
10115;BME280;5097;43.260;27.812;2023-05-25T14:15:15;99977.09;;;22.64;60.91
10115;BME280;5097;43.260;27.812;2023-05-25T14:18:00;99988.34;;;22.68;60.79
10115;BME280;5097;43.260;27.812;2023-05-25T14:20:44;99970.59;;;23.08;61.82
10115;BME280;5097;43.260;27.812;2023-05-25T14:23:28;99980.91;;;23.37;62.34
10115;BME280;5097;43.260;27.812;2023-05-25T14:26:12;99969.44;;;23.60;61.31
10115;BME280;5097;43.260;27.812;2023-05-25T14:28:56;99961.88;;;23.22;59.11
10115;BME280;5097;43.260;27.812;2023-05-25T14:31:41;99961.03;;;23.30;60.49
10115;BME280;5097;43.260;27.812;2023-05-25T14:34:25;99951.22;;;23.79;61.68
10115;BME280;5097;43.260;27.812;2023-05-25T14:37:10;99955.28;;;23.74;61.62
10115;BME280;5097;43.260;27.812;2023-05-25T14:39:54;99946.06;;;24.25;59.59
10115;BME280;5097;43.260;27.812;2023-05-25T14:42:38;99937.41;;;24.69;57.38